createdAt,value
2022-08-26T00:02:19.291Z,94.60
2022-08-26T00:04:49.395Z,94.80
2022-08-26T00:07:18.943Z,94.70
2022-08-26T00:09:47.477Z,94.70
2022-08-26T00:12:15.903Z,94.80
2022-08-26T00:14:44.272Z,95.10
2022-08-26T00:17:14.012Z,95.90
2022-08-26T00:19:42.232Z,95.40
2022-08-26T00:22:11.586Z,95.70
2022-08-26T00:24:39.869Z,95.60
2022-08-26T00:27:16.253Z,95.50
2022-08-26T00:29:45.880Z,95.30
2022-08-26T00:32:15.970Z,95.30
2022-08-26T00:34:44.492Z,95.50
2022-08-26T00:37:16.156Z,95.50
2022-08-26T00:39:44.632Z,95.60
2022-08-26T00:42:14.134Z,95.80
2022-08-26T00:44:42.421Z,96.40
2022-08-26T00:47:17.569Z,96.10
2022-08-26T00:49:48.767Z,96.00
2022-08-26T00:52:21.934Z,96.30
2022-08-26T00:54:56.390Z,96.10
2022-08-26T00:57:25.620Z,96.00
2022-08-26T00:59:57.815Z,96.00
2022-08-26T01:02:26.915Z,96.00
2022-08-26T01:05:03.365Z,96.10
2022-08-26T01:07:34.814Z,96.10
2022-08-26T01:10:06.253Z,96.10
2022-08-26T01:12:40.697Z,96.20
2022-08-26T01:15:11.396Z,96.10
2022-08-26T01:17:40.511Z,96.00
2022-08-26T01:20:18.228Z,96.00
2022-08-26T01:22:56.613Z,96.10
2022-08-26T01:25:28.541Z,96.40
2022-08-26T01:27:59.728Z,96.10
2022-08-26T01:30:31.163Z,96.10
2022-08-26T01:33:02.654Z,96.00
2022-08-26T01:35:33.068Z,96.00
2022-08-26T01:38:03.056Z,96.00
2022-08-26T01:40:37.270Z,96.00
2022-08-26T01:43:09.442Z,96.10
2022-08-26T01:45:41.594Z,96.10
2022-08-26T01:48:15.303Z,96.30
2022-08-26T01:50:46.261Z,96.30
2022-08-26T01:53:19.300Z,96.30
2022-08-26T01:55:54.238Z,96.70
2022-08-26T01:58:25.581Z,97.20
2022-08-26T02:00:55.606Z,97.00
2022-08-26T02:03:24.843Z,96.70
2022-08-26T02:05:55.592Z,96.60
2022-08-26T02:08:32.119Z,96.60
2022-08-26T02:11:01.310Z,96.50
2022-08-26T02:13:32.842Z,96.50
2022-08-26T02:16:04.089Z,96.50
2022-08-26T02:18:35.933Z,96.40
2022-08-26T02:21:06.732Z,96.40
2022-08-26T02:23:36.663Z,96.70
2022-08-26T02:26:11.678Z,96.40
2022-08-26T02:28:50.947Z,96.40
2022-08-26T02:31:20.115Z,96.40
2022-08-26T02:33:49.301Z,96.30
2022-08-26T02:36:21.920Z,96.30
2022-08-26T02:38:52.057Z,96.20
2022-08-26T02:41:20.546Z,96.30
2022-08-26T02:43:51.454Z,96.20
2022-08-26T02:46:21.464Z,96.30
2022-08-26T02:48:58.362Z,96.40
2022-08-26T02:51:26.806Z,96.30
2022-08-26T02:53:56.983Z,96.30
2022-08-26T02:56:25.518Z,96.60
2022-08-26T02:58:53.919Z,96.80
2022-08-26T03:01:23.920Z,96.70
2022-08-26T03:03:53.228Z,96.90
2022-08-26T03:06:22.051Z,97.00
2022-08-26T03:08:50.405Z,96.90
2022-08-26T03:11:21.358Z,97.00
2022-08-26T03:13:50.511Z,97.10
2022-08-26T03:16:19.238Z,97.00
2022-08-26T03:18:52.426Z,97.00
2022-08-26T03:21:22.427Z,97.00
2022-08-26T03:23:50.710Z,96.80
2022-08-26T03:26:21.373Z,97.20
2022-08-26T03:29:07.335Z,97.30
2022-08-26T03:31:36.275Z,97.50
2022-08-26T03:34:04.677Z,97.40
2022-08-26T03:36:33.686Z,97.70
2022-08-26T03:39:03.902Z,97.60
2022-08-26T03:41:35.109Z,97.50
2022-08-26T03:44:03.797Z,97.40
2022-08-26T03:46:34.180Z,97.40
2022-08-26T03:49:05.233Z,97.40
2022-08-26T03:51:35.239Z,97.30
2022-08-26T03:54:08.846Z,97.40
2022-08-26T03:56:38.655Z,97.30
2022-08-26T03:59:08.677Z,97.30
2022-08-26T04:01:37.708Z,97.20
2022-08-26T04:04:06.572Z,97.30
2022-08-26T04:06:38.530Z,97.20
2022-08-26T04:09:10.108Z,97.20
2022-08-26T04:11:40.528Z,97.20
2022-08-26T04:14:11.144Z,97.10
2022-08-26T04:16:39.838Z,97.10
2022-08-26T04:19:08.762Z,97.10
2022-08-26T04:21:38.354Z,97.00
2022-08-26T04:24:10.280Z,97.10
2022-08-26T04:26:42.541Z,97.20
2022-08-26T04:29:14.193Z,97.30
2022-08-26T04:31:43.152Z,97.20
2022-08-26T04:34:11.834Z,97.30
2022-08-26T04:36:43.153Z,97.40
2022-08-26T04:39:14.901Z,97.40
2022-08-26T04:41:45.586Z,97.70
2022-08-26T04:44:14.981Z,97.70
2022-08-26T04:46:44.176Z,97.60
2022-08-26T04:49:13.616Z,97.60
2022-08-26T04:51:42.292Z,97.60
2022-08-26T04:54:12.433Z,97.50
2022-08-26T04:56:43.923Z,97.50
2022-08-26T04:59:18.135Z,97.50
2022-08-26T05:01:48.694Z,97.60
2022-08-26T05:04:18.771Z,97.60
2022-08-26T05:06:48.367Z,97.60
2022-08-26T05:09:18.406Z,97.90
2022-08-26T05:11:51.926Z,97.50
2022-08-26T05:14:23.490Z,97.60
2022-08-26T05:16:52.213Z,97.50
2022-08-26T05:19:21.054Z,97.40
2022-08-26T05:21:49.856Z,97.40
2022-08-26T05:24:19.020Z,97.50
2022-08-26T05:26:48.248Z,97.50
2022-08-26T05:29:17.010Z,97.40
2022-08-26T05:31:47.059Z,97.50
2022-08-26T05:34:15.918Z,97.50
2022-08-26T05:36:44.487Z,97.50
2022-08-26T05:39:12.906Z,97.40
2022-08-26T05:41:44.882Z,97.30
2022-08-26T05:44:15.197Z,97.50
2022-08-26T05:46:47.072Z,97.50
2022-08-26T05:49:16.849Z,97.50
2022-08-26T05:51:47.982Z,97.40
2022-08-26T05:54:21.723Z,97.40
2022-08-26T05:56:51.992Z,97.30
2022-08-26T05:59:23.961Z,97.30
2022-08-26T06:01:55.293Z,97.30
2022-08-26T06:04:26.719Z,97.20
2022-08-26T06:06:57.081Z,97.00
2022-08-26T06:09:26.648Z,96.90
2022-08-26T06:11:55.913Z,96.90
2022-08-26T06:14:26.045Z,96.90
2022-08-26T06:16:55.943Z,97.00
2022-08-26T06:19:24.514Z,96.90
2022-08-26T06:21:54.872Z,96.90
2022-08-26T06:24:41.053Z,96.80
2022-08-26T06:27:13.870Z,96.70
2022-08-26T06:29:43.524Z,96.60
2022-08-26T06:32:13.217Z,96.50
2022-08-26T06:34:41.442Z,96.50
2022-08-26T06:37:11.143Z,96.50
2022-08-26T06:39:41.200Z,96.30
2022-08-26T06:42:11.062Z,96.40
2022-08-26T06:44:41.695Z,96.30
2022-08-26T06:47:14.400Z,96.20
2022-08-26T06:49:44.326Z,96.20
2022-08-26T07:11:29.391Z,95.70
2022-08-26T07:13:59.517Z,95.60
2022-08-26T07:16:30.015Z,95.60
2022-08-26T07:18:59.334Z,95.30
2022-08-26T07:21:29.969Z,95.20
2022-08-26T07:24:01.485Z,95.00
2022-08-26T07:26:31.946Z,95.00
2022-08-26T07:29:01.830Z,94.60
2022-08-26T07:31:39.549Z,93.80
2022-08-26T07:34:11.803Z,93.80
2022-08-26T07:36:40.094Z,93.70
2022-08-26T07:39:09.218Z,94.00
2022-08-26T07:41:39.347Z,94.10
2022-08-26T07:44:08.830Z,94.10
2022-08-26T07:46:38.681Z,93.90
2022-08-26T07:49:07.119Z,93.80
2022-08-26T07:51:37.206Z,93.70
2022-08-26T07:54:06.978Z,93.50
2022-08-26T07:56:35.742Z,92.60
2022-08-26T07:59:13.320Z,92.60
2022-08-26T08:01:45.090Z,93.00
2022-08-26T08:04:14.221Z,92.50
2022-08-26T08:06:43.988Z,92.80
2022-08-26T08:09:12.962Z,92.30
2022-08-26T08:11:41.673Z,91.80
2022-08-26T08:14:12.971Z,91.90
2022-08-26T08:16:42.348Z,91.50
2022-08-26T08:19:14.707Z,91.20
2022-08-26T08:21:43.223Z,91.10
2022-08-26T08:24:12.032Z,91.40
2022-08-26T08:26:40.815Z,90.70
2022-08-26T08:29:09.623Z,90.40
2022-08-26T08:31:56.628Z,90.20
2022-08-26T08:34:27.425Z,90.00
2022-08-26T08:36:55.962Z,89.70
2022-08-26T08:39:25.568Z,90.10
2022-08-26T08:42:34.535Z,89.20
2022-08-26T08:45:10.300Z,89.40
2022-08-26T08:47:43.220Z,87.90
2022-08-26T08:50:21.220Z,88.00
2022-08-26T08:52:53.057Z,86.90
2022-08-26T08:55:21.546Z,87.10
2022-08-26T08:58:02.149Z,86.80
2022-08-26T09:00:39.803Z,87.50
2022-08-26T09:03:18.860Z,86.90
2022-08-26T09:05:51.525Z,85.30
2022-08-26T09:08:24.925Z,86.00
2022-08-26T09:10:56.124Z,84.00
2022-08-26T09:13:27.150Z,84.90
2022-08-26T09:16:04.457Z,82.40
2022-08-26T09:18:59.152Z,84.40
2022-08-26T09:21:28.264Z,82.50
2022-08-26T09:23:57.260Z,81.70
2022-08-26T09:26:29.668Z,82.20
2022-08-26T09:29:01.376Z,80.30
2022-08-26T09:31:31.966Z,81.20
2022-08-26T09:34:17.576Z,80.40
2022-08-26T09:36:48.651Z,79.90
2022-08-26T09:39:33.460Z,79.80
2022-08-26T09:42:09.614Z,78.30
2022-08-26T09:44:57.150Z,75.00
2022-08-26T09:47:31.598Z,73.20
2022-08-26T09:50:09.709Z,74.40
2022-08-26T09:52:42.733Z,74.10
2022-08-26T09:55:16.108Z,73.60
2022-08-26T09:57:51.100Z,73.70
2022-08-26T10:00:29.537Z,73.10
2022-08-26T10:02:59.651Z,72.30
2022-08-26T10:05:37.458Z,73.20
2022-08-26T10:08:25.550Z,73.10
2022-08-26T10:10:56.376Z,71.00
2022-08-26T10:13:31.363Z,70.70
2022-08-26T10:16:12.504Z,70.90
2022-08-26T10:18:46.459Z,70.60
2022-08-26T10:21:21.434Z,70.00
2022-08-26T10:23:53.025Z,69.20
2022-08-26T10:26:26.934Z,70.00
2022-08-26T10:29:01.530Z,69.90
2022-08-26T10:31:40.113Z,70.30
2022-08-26T10:34:09.567Z,69.60
2022-08-26T10:37:14.525Z,70.00
2022-08-26T10:39:46.207Z,69.90
2022-08-26T10:42:23.305Z,70.00
2022-08-26T10:44:54.244Z,69.50
2022-08-26T10:47:35.423Z,70.20
2022-08-26T10:50:04.731Z,71.00
2022-08-26T10:52:50.165Z,71.10
2022-08-26T10:55:25.648Z,70.60
2022-08-26T10:58:05.417Z,70.60
2022-08-26T11:00:58.304Z,71.30
2022-08-26T11:03:35.574Z,71.60
2022-08-26T11:06:24.616Z,72.20
2022-08-26T11:08:55.503Z,72.60
2022-08-26T11:11:53.934Z,72.50
2022-08-26T11:14:53.566Z,72.60
2022-08-26T11:17:58.371Z,73.00
2022-08-26T11:20:41.677Z,73.60
2022-08-26T11:23:50.776Z,73.80
2022-08-26T11:26:55.021Z,74.30
2022-08-26T11:29:53.922Z,74.20
2022-08-26T11:32:27.525Z,74.10
2022-08-26T11:34:58.364Z,74.50
2022-08-26T11:37:34.335Z,75.00
2022-08-26T11:40:07.627Z,75.50
2022-08-26T11:42:42.731Z,75.70
2022-08-26T11:45:20.479Z,76.50
2022-08-26T11:47:49.313Z,77.20
2022-08-26T11:50:23.511Z,78.20
2022-08-26T11:52:53.501Z,78.40
2022-08-26T11:55:23.487Z,78.50
2022-08-26T11:57:57.640Z,79.00
2022-08-26T12:00:33.331Z,79.50
2022-08-26T12:03:07.777Z,79.60
2022-08-26T12:05:39.485Z,79.80
2022-08-26T12:08:11.188Z,80.20
2022-08-26T12:10:40.492Z,80.20
2022-08-26T12:13:21.990Z,80.80
2022-08-26T12:15:55.901Z,81.10
2022-08-26T12:18:29.421Z,81.50
2022-08-26T12:21:01.332Z,81.70
2022-08-26T12:23:41.419Z,81.50
2022-08-26T12:26:14.277Z,81.60
2022-08-26T12:28:51.773Z,81.80
2022-08-26T12:31:28.318Z,79.50
2022-08-26T12:33:59.187Z,76.60
2022-08-26T12:36:31.982Z,75.70
2022-08-26T12:39:11.196Z,74.60
2022-08-26T12:41:42.825Z,73.70
2022-08-26T12:44:36.542Z,72.90
2022-08-26T12:47:12.449Z,73.10
2022-08-26T12:49:42.380Z,72.00
2022-08-26T12:52:30.147Z,71.70
2022-08-26T12:55:00.335Z,70.00
2022-08-26T12:57:32.288Z,67.30
2022-08-26T13:00:35.341Z,68.20
2022-08-26T13:03:04.729Z,68.40
2022-08-26T13:05:35.604Z,68.50
2022-08-26T13:08:12.150Z,68.30
2022-08-26T13:10:43.363Z,67.80
2022-08-26T13:13:11.757Z,67.30
2022-08-26T13:15:41.483Z,66.30
2022-08-26T13:18:09.870Z,66.20
2022-08-26T13:20:44.003Z,65.80
2022-08-26T13:23:12.532Z,65.30
2022-08-26T13:25:41.214Z,64.40
2022-08-26T13:28:09.943Z,63.30
2022-08-26T13:30:38.155Z,61.20
2022-08-26T13:33:08.682Z,61.80
2022-08-26T13:35:40.545Z,60.20
2022-08-26T13:38:14.757Z,60.90
2022-08-26T13:41:02.804Z,60.80
2022-08-26T13:43:31.480Z,60.50
2022-08-26T13:46:01.669Z,60.40
2022-08-26T13:48:34.003Z,60.90
2022-08-26T13:51:03.375Z,61.10
2022-08-26T13:53:37.264Z,61.40
2022-08-26T13:56:08.068Z,61.60
2022-08-26T13:58:39.370Z,61.80
2022-08-26T14:01:09.154Z,62.50
2022-08-26T14:03:39.233Z,63.10
2022-08-26T14:06:07.624Z,63.20
2022-08-26T14:08:36.997Z,63.80
2022-08-26T14:11:05.404Z,64.50
2022-08-26T14:13:34.032Z,65.00
2022-08-26T14:16:03.683Z,65.50
2022-08-26T14:18:39.712Z,65.80
2022-08-26T14:21:13.838Z,66.30
2022-08-26T14:23:42.548Z,66.30
2022-08-26T14:26:14.357Z,65.80
2022-08-26T14:28:57.076Z,65.40
2022-08-26T14:31:26.977Z,65.30
2022-08-26T14:33:57.991Z,65.70
2022-08-26T14:36:32.197Z,65.50
2022-08-26T14:39:03.355Z,65.40
2022-08-26T14:41:32.963Z,64.40
2022-08-26T14:44:04.975Z,63.50
2022-08-26T14:46:43.414Z,62.20
2022-08-26T14:49:12.115Z,61.40
2022-08-26T14:51:41.911Z,60.70
2022-08-26T14:54:12.695Z,58.80
2022-08-26T14:56:44.998Z,56.80
2022-08-26T14:59:13.936Z,56.20
2022-08-26T15:01:42.329Z,55.80
2022-08-26T15:04:10.725Z,55.80
2022-08-26T15:06:39.434Z,55.70
2022-08-26T15:09:09.546Z,55.70
2022-08-26T15:11:38.231Z,55.20
2022-08-26T15:14:06.784Z,53.50
2022-08-26T15:16:35.460Z,53.20
2022-08-26T15:19:05.428Z,52.60
2022-08-26T15:21:34.305Z,50.80
2022-08-26T15:24:03.623Z,49.90
2022-08-26T15:26:34.055Z,49.40
2022-08-26T15:29:04.991Z,48.90
2022-08-26T15:31:34.243Z,48.70
2022-08-26T15:34:05.917Z,47.70
2022-08-26T15:36:37.340Z,47.50
2022-08-26T15:39:08.673Z,46.90
2022-08-26T15:41:38.888Z,45.40
2022-08-26T15:44:08.408Z,45.30
2022-08-26T15:46:37.542Z,45.80
2022-08-26T15:49:07.722Z,44.90
2022-08-26T15:51:45.437Z,44.80
2022-08-26T15:54:16.693Z,44.30
2022-08-26T15:56:49.258Z,44.60
2022-08-26T15:59:17.960Z,43.00
2022-08-26T16:01:47.786Z,43.60
2022-08-26T16:04:16.155Z,43.90
2022-08-26T16:06:47.304Z,44.20
2022-08-26T16:09:16.134Z,42.80
2022-08-26T16:11:45.814Z,41.00
2022-08-26T16:14:14.033Z,41.20
2022-08-26T16:16:42.462Z,42.60
2022-08-26T16:19:11.653Z,43.80
2022-08-26T16:21:41.962Z,45.00
2022-08-26T16:24:10.705Z,44.70
2022-08-26T16:26:41.281Z,46.10
2022-08-26T16:29:12.984Z,46.80
2022-08-26T16:31:41.812Z,46.80
2022-08-26T16:34:10.785Z,46.80
2022-08-26T16:36:40.436Z,47.10
2022-08-26T16:39:10.111Z,47.30
2022-08-26T16:41:38.678Z,47.70
2022-08-26T16:44:08.172Z,47.90
2022-08-26T16:46:39.601Z,47.80
2022-08-26T16:49:08.138Z,47.80
2022-08-26T16:51:38.110Z,48.50
2022-08-26T16:54:08.200Z,48.80
2022-08-26T16:56:36.741Z,48.90
2022-08-26T16:59:05.829Z,49.20
2022-08-26T17:01:34.316Z,49.40
2022-08-26T17:04:04.461Z,49.70
2022-08-26T17:06:32.613Z,49.90
2022-08-26T17:09:00.967Z,50.00
2022-08-26T17:11:29.380Z,50.40
2022-08-26T17:13:58.079Z,50.90
2022-08-26T17:16:27.046Z,51.20
2022-08-26T17:18:56.844Z,51.60
2022-08-26T17:21:28.420Z,52.40
2022-08-26T17:23:57.348Z,53.00
2022-08-26T17:26:25.741Z,53.50
2022-08-26T17:28:54.582Z,53.80
2022-08-26T17:31:24.066Z,54.00
2022-08-26T17:33:53.902Z,55.20
2022-08-26T17:36:28.195Z,55.60
2022-08-26T17:38:59.610Z,55.90
2022-08-26T17:41:29.039Z,56.90
2022-08-26T17:43:57.611Z,56.80
2022-08-26T17:46:26.134Z,57.80
2022-08-26T17:48:54.451Z,58.10
2022-08-26T17:51:23.551Z,58.90
2022-08-26T17:53:52.715Z,59.00
2022-08-26T17:56:26.547Z,59.70
2022-08-26T17:58:56.503Z,60.60
2022-08-26T18:01:27.927Z,60.90
2022-08-26T18:04:00.331Z,61.80
2022-08-26T18:06:30.371Z,62.40
2022-08-26T18:08:59.333Z,63.20
2022-08-26T18:11:29.869Z,63.10
2022-08-26T18:13:58.249Z,63.60
2022-08-26T18:16:26.574Z,63.60
2022-08-26T18:18:56.532Z,64.10
2022-08-26T18:21:27.257Z,65.60
2022-08-26T18:23:56.485Z,65.40
2022-08-26T18:26:26.907Z,66.10
2022-08-26T18:28:57.117Z,67.30
2022-08-26T18:31:25.934Z,67.20
2022-08-26T18:33:54.538Z,67.80
2022-08-26T18:36:24.556Z,67.80
2022-08-26T18:38:54.019Z,68.50
2022-08-26T18:41:24.478Z,68.70
2022-08-26T18:43:54.176Z,68.90
2022-08-26T18:46:26.947Z,70.20
2022-08-26T18:48:55.815Z,69.90
2022-08-26T18:51:29.597Z,70.70
2022-08-26T18:53:59.133Z,71.00
2022-08-26T18:56:28.632Z,71.60
2022-08-26T18:58:58.452Z,71.40
2022-08-26T19:01:29.809Z,71.80
2022-08-26T19:03:59.464Z,72.40
2022-08-26T19:06:31.709Z,72.60
2022-08-26T19:09:00.669Z,73.80
2022-08-26T19:11:31.657Z,73.70
2022-08-26T19:14:01.641Z,74.00
2022-08-26T19:16:32.116Z,73.90
2022-08-26T19:19:01.909Z,75.50
2022-08-26T19:21:30.980Z,75.70
2022-08-26T19:24:00.964Z,76.60
2022-08-26T19:26:29.554Z,76.20
2022-08-26T19:28:58.269Z,76.70
2022-08-26T19:31:26.847Z,76.60
2022-08-26T19:33:58.148Z,77.90
2022-08-26T19:36:27.917Z,79.70
2022-08-26T19:38:57.139Z,82.40
2022-08-26T19:41:37.013Z,80.80
2022-08-26T19:44:09.970Z,80.90
2022-08-26T19:49:13.843Z,80.30
2022-08-26T19:51:42.065Z,80.60
2022-08-26T19:54:10.162Z,81.50
2022-08-26T19:56:38.490Z,82.60
2022-08-26T19:59:06.726Z,83.40
2022-08-26T20:01:35.269Z,83.00
2022-08-26T20:04:04.128Z,82.70
2022-08-26T20:06:34.789Z,82.90
2022-08-26T20:09:03.145Z,83.50
2022-08-26T20:11:31.750Z,83.70
2022-08-26T20:14:00.080Z,83.90
2022-08-26T20:16:28.340Z,84.10
2022-08-26T20:19:14.285Z,86.00
2022-08-26T20:21:44.176Z,85.20
2022-08-26T20:24:15.600Z,87.80
2022-08-26T20:26:45.513Z,87.70
2022-08-26T20:29:16.627Z,87.90
2022-08-26T20:31:45.150Z,87.90
2022-08-26T20:34:14.458Z,87.60
2022-08-26T20:36:45.077Z,87.80
2022-08-26T20:39:14.607Z,88.60
2022-08-26T20:41:43.914Z,88.80
2022-08-26T20:44:13.272Z,90.00
2022-08-26T20:46:42.310Z,90.00
2022-08-26T20:49:10.822Z,89.80
2022-08-26T20:51:39.419Z,89.40
2022-08-26T20:54:09.660Z,89.90
2022-08-26T20:56:37.989Z,91.10
2022-08-26T20:59:07.949Z,90.90
2022-08-26T21:01:42.118Z,91.10
2022-08-26T21:04:17.809Z,91.20
2022-08-26T21:06:52.609Z,92.00
2022-08-26T21:09:23.977Z,92.40
2022-08-26T21:11:54.738Z,92.10
2022-08-26T21:14:26.012Z,92.70
2022-08-26T21:16:54.751Z,92.70
2022-08-26T21:19:23.195Z,92.70
2022-08-26T21:21:51.913Z,92.70
2022-08-26T21:24:20.405Z,92.80
2022-08-26T21:26:49.969Z,92.90
2022-08-26T21:29:18.303Z,92.80
2022-08-26T21:31:47.071Z,92.60
2022-08-26T21:34:17.006Z,92.80
2022-08-26T21:36:45.643Z,92.70
2022-08-26T21:39:14.934Z,92.60
2022-08-26T21:41:44.558Z,92.70
2022-08-26T21:44:15.580Z,92.70
2022-08-26T21:46:45.265Z,92.60
2022-08-26T21:49:15.682Z,92.60
2022-08-26T21:51:47.796Z,92.70
2022-08-26T21:54:17.047Z,92.80
2022-08-26T21:56:47.817Z,92.90
2022-08-26T21:59:19.601Z,92.90
2022-08-26T22:01:48.743Z,93.30
2022-08-26T22:04:17.243Z,93.50
2022-08-26T22:06:47.745Z,93.60
2022-08-26T22:09:18.881Z,93.60
2022-08-26T22:11:47.979Z,93.60
2022-08-26T22:14:19.374Z,93.70
2022-08-26T22:16:50.503Z,93.70
2022-08-26T22:19:19.996Z,94.30
2022-08-26T22:21:50.814Z,94.20
2022-08-26T22:24:19.937Z,94.60
2022-08-26T22:26:49.376Z,94.70
2022-08-26T22:29:20.041Z,94.70
2022-08-26T22:31:48.513Z,94.70
2022-08-26T22:34:19.573Z,94.80
2022-08-26T22:36:50.216Z,94.50
2022-08-26T22:39:21.166Z,94.50
2022-08-26T22:41:50.432Z,94.60
2022-08-26T22:44:22.169Z,94.30
2022-08-26T22:46:54.390Z,94.10
2022-08-26T22:49:22.837Z,94.70
2022-08-26T22:51:52.004Z,95.50
2022-08-26T22:54:20.458Z,95.60
2022-08-26T22:56:48.656Z,95.20
2022-08-26T22:59:17.294Z,96.10
2022-08-26T23:01:47.507Z,96.70
2022-08-26T23:04:16.202Z,96.20
2022-08-26T23:06:47.518Z,96.10
2022-08-26T23:09:18.249Z,96.10
2022-08-26T23:11:47.752Z,95.90
2022-08-26T23:14:17.635Z,95.90
2022-08-26T23:16:47.627Z,96.20
2022-08-26T23:19:17.875Z,97.10
2022-08-26T23:21:46.748Z,97.00
2022-08-26T23:24:15.865Z,97.20
2022-08-26T23:26:45.186Z,97.80
2022-08-26T23:29:15.648Z,97.60
2022-08-26T23:31:44.383Z,97.20
2022-08-26T23:34:33.236Z,97.30
2022-08-26T23:37:01.920Z,97.10
2022-08-26T23:39:32.199Z,96.10
2022-08-26T23:42:01.823Z,95.70
2022-08-26T23:44:30.923Z,95.70
2022-08-26T23:46:59.788Z,95.60
2022-08-26T23:49:30.236Z,95.70
2022-08-26T23:52:16.222Z,95.70
2022-08-26T23:54:45.307Z,95.70
2022-08-26T23:57:13.823Z,96.10
2022-08-26T23:59:42.424Z,96.10
